Terminal Aerodrome Forecast
Issued by NWS Lake Charles, LA

Home | Current Version | Previous Version | Text Only | Print | Product List | Glossary On
Versions: 1 2 3 4 5 6 7 8 9 10 11 12 13
660
FTUS44 KLCH 030559
TAFARA
TAF
KARA 030559Z 0306/0406 07009KT P6SM -RA OVC045
     FM031200 08017G22KT 5SM -RA BR OVC025
     FM031800 11021KT P6SM OVC025
     FM040000 11016KT 4SM BR OVC015=

USA.gov is the U.S. government's official web portal to all federal, state and local government web resources and services.